Time;durP1;ratioP1;P1;durP2;ratioP2;P2;SDS_P1;SDS_P2;PMS_P1;PMS_P2;Temp;Humidity;BMP_temperature;BMP_pressure;BME280_temperature;BME280_humidity;BME280_pressure;Samples;Min_cycle;Max_cycle;Signal;HPM_P1;HPM_P2
2022/05/08 00:00:14;;;;;;;3.40;1.73;;;;;;;21.89;43.54;102536.31;5094180;28;20110;-63
2022/05/08 00:02:40;;;;;;;4.70;1.90;;;;;;;21.88;43.62;102531.97;5094873;28;20114;-63
2022/05/08 00:05:07;;;;;;;4.35;1.98;;;;;;;21.88;43.35;102535.44;5094569;28;20025;-63
2022/05/08 00:07:35;;;;;;;3.40;1.85;;;;;;;21.88;43.54;102531.97;5093852;28;20361;-63
2022/05/08 00:10:00;;;;;;;4.55;1.75;;;;;;;21.87;43.65;102536.44;5094552;28;20021;-63
2022/05/08 00:12:25;;;;;;;3.33;1.92;;;;;;;21.86;43.20;102526.75;5094895;28;20375;-63
2022/05/08 00:14:51;;;;;;;3.13;1.80;;;;;;;21.86;43.53;102529.41;5093490;28;20036;-63
2022/05/08 00:17:16;;;;;;;3.55;1.70;;;;;;;21.86;43.47;102531.22;5094693;28;20480;-62
2022/05/08 00:19:44;;;;;;;3.95;2.00;;;;;;;21.84;43.71;102523.38;5093768;28;20028;-62
2022/05/08 00:22:13;;;;;;;3.97;1.65;;;;;;;21.85;43.60;102524.22;5094084;28;20039;-63
2022/05/08 00:24:38;;;;;;;4.40;1.88;;;;;;;21.84;43.43;102534.00;5094426;28;20451;-63
2022/05/08 00:27:04;;;;;;;3.47;1.67;;;;;;;21.82;43.63;102527.09;5093562;28;20055;-63
2022/05/08 00:29:29;;;;;;;4.03;1.80;;;;;;;21.83;43.40;102531.44;5094488;28;20020;-63
2022/05/08 00:31:55;;;;;;;3.45;1.90;;;;;;;21.82;43.31;102527.91;5094109;28;20054;-63
2022/05/08 00:34:20;;;;;;;3.85;1.80;;;;;;;21.80;43.49;102527.19;5093447;28;20020;-63
2022/05/08 00:36:45;;;;;;;4.22;1.75;;;;;;;21.80;43.46;102519.22;5094326;28;20020;-63
2022/05/08 00:39:11;;;;;;;4.03;1.70;;;;;;;21.79;43.38;102525.47;5093784;28;20028;-63
2022/05/08 00:41:36;;;;;;;3.57;1.77;;;;;;;21.79;43.56;102524.66;5093508;28;20032;-62
2022/05/08 00:44:03;;;;;;;4.60;2.10;;;;;;;21.76;43.18;102520.38;5094025;28;20277;-62
2022/05/08 00:46:29;;;;;;;3.10;1.70;;;;;;;21.77;43.26;102523.91;5094092;28;20024;-63
2022/05/08 00:48:55;;;;;;;3.28;1.80;;;;;;;21.76;43.44;102525.69;5092990;28;20100;-62
2022/05/08 00:51:20;;;;;;;3.97;1.80;;;;;;;21.74;43.38;102530.28;5093604;28;20131;-62
2022/05/08 00:53:48;;;;;;;4.05;1.70;;;;;;;21.71;43.35;102530.50;5093812;28;20083;-63
2022/05/08 00:56:15;;;;;;;3.60;1.70;;;;;;;21.72;43.41;102530.38;5093242;28;20036;-62
2022/05/08 00:58:42;;;;;;;5.13;1.80;;;;;;;21.72;43.28;102541.00;5093779;28;20475;-63
2022/05/08 01:01:09;;;;;;;3.67;1.70;;;;;;;21.72;43.21;102538.34;5093393;28;20384;-63
2022/05/08 01:03:35;;;;;;;3.80;1.70;;;;;;;21.72;43.42;102537.50;5092929;28;20506;-62
2022/05/08 01:06:08;;;;;;;3.53;1.67;;;;;;;21.71;43.14;102536.66;5093377;28;20398;-63
2022/05/08 01:08:36;;;;;;;2.83;1.55;;;;;;;21.70;43.41;102545.56;5093150;28;20047;-63
2022/05/08 01:11:02;;;;;;;4.22;1.80;;;;;;;21.69;43.35;102543.88;5092590;28;20106;-63
2022/05/08 01:13:28;;;;;;;3.38;1.80;;;;;;;21.69;43.34;102545.69;5093660;28;20028;-63
2022/05/08 01:15:55;;;;;;;3.30;1.83;;;;;;;21.67;43.33;102537.81;5092163;28;20154;-63
2022/05/08 01:18:21;;;;;;;3.95;1.70;;;;;;;21.67;43.23;102543.13;5093577;28;20273;-63
2022/05/08 01:20:46;;;;;;;3.90;1.80;;;;;;;21.65;43.38;102545.06;5093354;28;20035;-64
2022/05/08 01:23:13;;;;;;;4.07;1.90;;;;;;;21.65;43.20;102541.53;5092253;28;20032;-62
2022/05/08 01:25:48;;;;;;;3.75;1.83;;;;;;;21.66;43.22;102548.53;5093651;28;20052;-63
2022/05/08 01:28:14;;;;;;;4.25;1.90;;;;;;;21.66;43.22;102543.22;5093452;28;20016;-63
2022/05/08 01:30:43;;;;;;;3.92;1.73;;;;;;;21.65;43.34;102545.06;5092639;28;20089;-63
2022/05/08 01:33:10;;;;;;;3.55;2.00;;;;;;;21.65;43.29;102541.53;5092980;28;20028;-62
2022/05/08 01:35:35;;;;;;;4.25;1.90;;;;;;;21.65;43.28;102546.84;5092952;28;20032;-63
2022/05/08 01:38:01;;;;;;;4.55;1.80;;;;;;;21.66;43.14;102548.53;5092243;28;20078;-62
2022/05/08 01:40:27;;;;;;;4.18;2.20;;;;;;;21.63;43.12;102549.59;5093162;28;20047;-63
2022/05/08 01:42:52;;;;;;;4.70;2.13;;;;;;;21.61;43.14;102551.50;5092679;28;20356;-62
2022/05/08 01:45:17;;;;;;;4.03;2.00;;;;;;;21.60;42.97;102556.94;5092352;28;20028;-63
2022/05/08 01:50:26;;;;;;;3.93;2.00;;;;;;;21.60;42.51;102551.63;5093357;28;20042;-64
2022/05/08 01:52:52;;;;;;;4.30;2.05;;;;;;;21.59;43.08;102555.22;5092071;28;20627;-64
2022/05/08 01:55:17;;;;;;;4.10;2.00;;;;;;;21.59;42.95;102560.53;5092962;28;20016;-63
2022/05/08 01:57:43;;;;;;;4.40;1.90;;;;;;;21.59;43.06;102561.38;5092812;28;20103;-63
2022/05/08 02:00:09;;;;;;;3.30;1.85;;;;;;;21.58;43.06;102565.00;5091839;28;20099;-63
2022/05/08 02:02:34;;;;;;;3.38;1.70;;;;;;;21.58;42.99;102565.00;5092578;28;20391;-62
2022/05/08 02:05:01;;;;;;;3.50;1.92;;;;;;;21.58;42.99;102558.84;5092801;28;20028;-62
2022/05/08 02:07:26;;;;;;;4.95;1.90;;;;;;;21.56;42.88;102565.09;5092484;28;20016;-63
2022/05/08 02:09:51;;;;;;;4.60;2.20;;;;;;;21.56;43.00;102564.25;5092588;28;20028;-63
2022/05/08 02:12:17;;;;;;;4.10;2.10;;;;;;;21.55;42.89;102570.50;5092139;28;20028;-62
2022/05/08 02:14:43;;;;;;;4.60;2.00;;;;;;;21.53;42.51;102565.31;5092565;28;20040;-62
2022/05/08 02:17:17;;;;;;;4.38;1.80;;;;;;;21.53;42.74;102562.66;5092368;28;20027;-62
2022/05/08 02:19:43;;;;;;;4.22;2.08;;;;;;;21.52;42.58;102568.94;5094117;28;20471;-63
2022/05/08 02:22:08;;;;;;;4.55;2.00;;;;;;;21.53;42.78;102567.97;5096458;28;20036;-62
2022/05/08 02:24:33;;;;;;;3.70;2.03;;;;;;;21.51;42.86;102564.56;5096801;28;20028;-62
2022/05/08 02:26:58;;;;;;;4.20;2.00;;;;;;;21.51;42.78;102574.34;5095583;28;20032;-63
2022/05/08 02:29:24;;;;;;;3.90;2.17;;;;;;;21.50;42.80;102573.47;5096538;28;20024;-63
2022/05/08 02:31:49;;;;;;;4.27;2.23;;;;;;;21.47;42.55;102576.31;5096189;28;20277;-63
2022/05/08 02:34:14;;;;;;;4.53;2.20;;;;;;;21.47;42.78;102567.50;5095883;28;20272;-63
2022/05/08 02:36:39;;;;;;;4.50;2.30;;;;;;;21.46;42.56;102576.41;5096536;28;20288;-63
2022/05/08 02:39:05;;;;;;;3.97;2.10;;;;;;;21.47;42.39;102572.81;5096177;28;20020;-63
2022/05/08 02:41:30;;;;;;;3.85;2.03;;;;;;;21.45;42.54;102578.22;5095636;28;20364;-62
2022/05/08 02:43:55;;;;;;;4.28;2.10;;;;;;;21.44;42.59;102579.16;5096042;28;20028;-62
2022/05/08 02:46:20;;;;;;;4.73;2.47;;;;;;;21.45;42.68;102582.69;5096340;28;20433;-62
2022/05/08 02:48:58;;;;;;;4.53;2.35;;;;;;;21.45;42.76;102580.03;5095705;28;20280;-62
2022/05/08 02:51:23;;;;;;;3.90;2.35;;;;;;;21.45;42.62;102577.38;5096371;28;20030;-62
2022/05/08 02:53:48;;;;;;;4.63;2.30;;;;;;;21.45;42.56;102574.72;5096025;28;20103;-63
2022/05/08 02:58:58;;;;;;;4.30;2.17;;;;;;;21.42;42.40;102586.38;5095935;28;20065;-63
2022/05/08 03:01:23;;;;;;;4.10;2.10;;;;;;;21.41;42.55;102584.66;5095265;28;20036;-63
2022/05/08 03:03:48;;;;;;;4.40;2.27;;;;;;;21.38;42.52;102579.59;5095836;28;20273;-62
2022/05/08 03:06:13;;;;;;;6.13;2.42;;;;;;;21.40;42.56;102583.00;5096193;28;20020;-63
2022/05/08 03:08:39;;;;;;;5.07;2.50;;;;;;;21.39;42.40;102583.94;5095170;28;20020;-63
2022/05/08 03:13:48;;;;;;;4.60;2.42;;;;;;;21.39;42.37;102581.28;5095607;28;20035;-63
2022/05/08 03:16:14;;;;;;;4.90;2.30;;;;;;;21.39;42.65;102583.94;5093929;28;20036;-63
2022/05/08 03:18:45;;;;;;;4.72;2.30;;;;;;;21.38;42.34;102582.25;5094455;28;20077;-63
2022/05/08 03:21:14;;;;;;;4.07;2.45;;;;;;;21.36;42.15;102585.00;5094134;28;20021;-63
2022/05/08 03:23:40;;;;;;;3.88;2.13;;;;;;;21.37;42.30;102580.53;5093686;28;20043;-63
2022/05/08 03:26:06;;;;;;;4.10;2.30;;;;;;;21.37;42.36;102575.25;5094274;28;20024;-63
2022/05/08 03:28:33;;;;;;;4.15;2.03;;;;;;;21.35;42.35;102575.34;5094478;28;20016;-62
2022/05/08 03:30:59;;;;;;;3.60;2.10;;;;;;;21.34;42.12;102573.63;5093056;28;20028;-62
2022/05/08 03:33:28;;;;;;;5.00;1.88;;;;;;;21.33;42.15;102582.56;5094321;28;20073;-63
2022/05/08 03:35:53;;;;;;;4.13;2.08;;;;;;;21.33;42.33;102577.25;5094043;28;20044;-63
2022/05/08 03:38:19;;;;;;;4.15;2.33;;;;;;;21.33;42.06;102569.31;5093512;28;20070;-63
2022/05/08 03:40:44;;;;;;;4.05;2.33;;;;;;;21.31;42.20;102581.81;5094011;28;20020;-63
2022/05/08 03:43:10;;;;;;;4.03;2.22;;;;;;;21.32;42.08;102585.31;5093764;28;20016;-63
2022/05/08 03:45:35;;;;;;;5.30;2.15;;;;;;;21.31;42.11;102576.50;5093497;28;20086;-63
2022/05/08 03:48:01;;;;;;;4.80;2.55;;;;;;;21.30;42.18;102580.13;5093769;28;20058;-63
2022/05/08 03:50:28;;;;;;;4.40;2.20;;;;;;;21.30;42.05;102579.25;5094158;28;20020;-63
2022/05/08 03:52:56;;;;;;;5.60;2.30;;;;;;;21.29;42.14;102580.22;5092811;28;20479;-63
2022/05/08 03:55:22;;;;;;;4.43;2.42;;;;;;;21.30;41.96;102579.25;5094103;28;20024;-63
2022/05/08 03:57:47;;;;;;;3.97;2.10;;;;;;;21.29;41.71;102580.22;5093410;28;20020;-63
2022/05/08 04:00:16;;;;;;;4.95;2.30;;;;;;;21.27;41.93;102582.97;5093680;28;20502;-63
2022/05/08 04:02:42;;;;;;;4.72;2.45;;;;;;;21.28;41.79;102584.66;5093769;28;20115;-63
2022/05/08 04:05:08;;;;;;;4.70;2.22;;;;;;;21.27;41.65;102582.09;5093012;28;20466;-63
2022/05/08 04:07:34;;;;;;;5.25;2.42;;;;;;;21.28;41.75;102584.66;5093732;28;20103;-63
2022/05/08 04:10:05;;;;;;;4.35;2.15;;;;;;;21.28;41.59;102591.78;5093617;28;20416;-64
2022/05/08 04:12:31;;;;;;;4.93;2.50;;;;;;;21.26;41.71;102594.53;5092712;28;20377;-63
2022/05/08 04:14:56;;;;;;;4.40;2.30;;;;;;;21.27;41.58;102592.72;4973141;28;3432428;-63
2022/05/08 04:17:21;;;;;;;4.27;2.10;;;;;;;21.26;41.52;102606.94;5094519;28;20328;-63
2022/05/08 04:19:49;;;;;;;4.90;2.63;;;;;;;21.25;41.27;102605.22;5093899;28;20283;-63
2022/05/08 04:24:58;;;;;;;5.03;2.20;;;;;;;21.23;41.52;102596.53;5094490;28;20458;-62
2022/05/08 04:27:23;;;;;;;4.45;2.10;;;;;;;21.23;41.29;102599.19;5093714;28;20020;-62
2022/05/08 04:29:51;;;;;;;4.65;2.10;;;;;;;21.25;41.21;102605.22;5094069;28;20028;-63
2022/05/08 04:32:17;;;;;;;4.20;2.35;;;;;;;21.23;41.20;102604.50;5094317;28;20016;-63
2022/05/08 04:34:42;;;;;;;4.30;2.27;;;;;;;21.21;41.59;102601.94;5093318;28;20035;-63
2022/05/08 04:37:07;;;;;;;4.90;2.77;;;;;;;21.20;41.35;102600.22;5093913;28;20604;-62
2022/05/08 04:39:33;;;;;;;5.82;2.20;;;;;;;21.18;41.17;102595.03;5094150;28;20352;-63
2022/05/08 04:41:59;;;;;;;5.00;2.03;;;;;;;21.21;41.39;102609.91;5092118;28;20034;-62
2022/05/08 04:44:24;;;;;;;6.43;1.92;;;;;;;21.19;41.13;102599.41;5094151;28;20071;-63
2022/05/08 04:46:49;;;;;;;4.45;1.90;;;;;;;21.20;41.32;102610.84;5093015;28;20051;-62
2022/05/08 04:49:15;;;;;;;3.73;1.80;;;;;;;21.18;41.13;102613.59;5093795;28;20081;-62
2022/05/08 04:51:40;;;;;;;5.70;2.17;;;;;;;21.18;41.16;102623.34;5094110;28;20024;-62
2022/05/08 04:54:05;;;;;;;4.23;1.90;;;;;;;21.18;41.05;102618.06;5093019;28;20521;-62
2022/05/08 04:56:30;;;;;;;5.30;2.17;;;;;;;21.19;40.83;102631.22;5093871;28;20743;-62
2022/05/08 04:58:58;;;;;;;4.85;2.17;;;;;;;21.18;40.90;102629.50;5093590;28;20020;-62
2022/05/08 05:01:31;;;;;;;5.25;2.08;;;;;;;21.19;41.18;102633.03;5092871;28;20024;-62
2022/05/08 05:03:56;;;;;;;5.30;2.15;;;;;;;21.19;41.16;102635.69;5093392;28;20070;-62
2022/05/08 05:06:21;;;;;;;6.25;2.28;;;;;;;21.17;41.21;102633.13;5093769;28;20027;-63
2022/05/08 05:09:02;;;;;;;4.30;1.80;;;;;;;21.18;41.01;102639.28;5093024;28;20036;-62
2022/05/08 05:11:30;;;;;;;5.40;2.05;;;;;;;21.17;41.08;102635.78;5093712;28;20334;-62
2022/05/08 05:13:55;;;;;;;5.43;2.33;;;;;;;21.18;40.90;102636.63;5093086;28;20040;-62
2022/05/08 05:16:20;;;;;;;5.32;2.22;;;;;;;21.16;40.80;102641.19;5092722;28;20086;-62
2022/05/08 05:18:46;;;;;;;5.80;2.20;;;;;;;21.18;40.84;102647.22;5093644;28;20468;-62
2022/05/08 05:21:11;;;;;;;5.63;2.30;;;;;;;21.18;40.82;102649.88;5093258;28;20740;-62
2022/05/08 05:23:36;;;;;;;6.50;2.20;;;;;;;21.17;40.75;102649.03;5092787;28;20427;-62
2022/05/08 05:26:04;;;;;;;4.10;1.80;;;;;;;21.18;40.78;102655.19;5093127;28;20019;-63
2022/05/08 05:28:30;;;;;;;4.60;2.05;;;;;;;21.17;40.70;102657.00;5093258;28;20352;-63
2022/05/08 05:31:08;;;;;;;4.78;1.88;;;;;;;21.17;40.61;102657.00;5092232;28;20035;-63
2022/05/08 05:33:33;;;;;;;5.60;2.30;;;;;;;21.18;40.59;102665.78;5093441;28;20017;-62
2022/05/08 05:35:58;;;;;;;6.83;2.10;;;;;;;21.17;40.68;102672.03;5093214;28;20032;-62
2022/05/08 05:38:23;;;;;;;4.40;2.07;;;;;;;21.17;40.50;102662.28;5092642;28;20028;-62
2022/05/08 05:40:49;;;;;;;4.63;2.07;;;;;;;21.16;40.49;102670.34;5092829;28;20275;-62
2022/05/08 05:43:14;;;;;;;5.18;2.28;;;;;;;21.17;40.48;102674.66;5092365;28;20028;-62
2022/05/08 05:45:40;;;;;;;4.40;1.87;;;;;;;21.17;40.39;102688.81;5093259;28;20081;-62
2022/05/08 05:48:05;;;;;;;5.22;2.00;;;;;;;21.14;40.83;102681.03;5092858;28;20019;-62
2022/05/08 05:50:31;;;;;;;5.93;2.10;;;;;;;21.15;40.91;102690.69;5092315;28;20025;-60
2022/05/08 05:52:59;;;;;;;5.45;1.98;;;;;;;21.16;40.84;102686.25;5092804;28;20369;-60
2022/05/08 05:55:24;;;;;;;5.47;2.13;;;;;;;21.18;40.78;102697.59;5092866;28;20020;-60
2022/05/08 05:57:49;;;;;;;7.18;2.05;;;;;;;21.15;41.00;102701.28;5091543;28;20418;-61
2022/05/08 06:00:20;;;;;;;5.50;2.20;;;;;;;21.13;41.11;102694.41;5092577;28;20069;-61
2022/05/08 06:02:47;;;;;;;4.97;2.00;;;;;;;21.14;41.24;102702.25;5092913;28;20288;-62
2022/05/08 06:05:14;;;;;;;7.20;1.92;;;;;;;21.14;41.12;102704.03;5091211;28;20131;-62
2022/05/08 06:07:42;;;;;;;4.75;2.10;;;;;;;21.16;41.56;102707.47;5092759;28;20024;-62
2022/05/08 06:10:09;;;;;;;7.20;2.20;;;;;;;21.17;41.75;102714.44;5092537;28;20020;-64
2022/05/08 06:12:34;;;;;;;4.90;1.75;;;;;;;21.18;41.58;102716.16;5091902;28;20020;-62
2022/05/08 06:15:00;;;;;;;5.05;2.00;;;;;;;21.16;41.91;102713.59;5092654;28;20081;-61
2022/05/08 06:17:26;;;;;;;5.22;2.17;;;;;;;21.18;41.96;102713.50;5093209;28;20465;-63
2022/05/08 06:19:51;;;;;;;4.90;2.00;;;;;;;21.23;41.40;102723.81;5092279;28;20039;-62
2022/05/08 06:22:17;;;;;;;6.57;1.98;;;;;;;21.28;41.37;102721.69;5093303;28;20450;-62
2022/05/08 06:24:42;;;;;;;5.82;2.05;;;;;;;21.33;41.28;102720.47;5093374;28;20098;-62
2022/05/08 06:27:08;;;;;;;5.18;1.73;;;;;;;21.38;41.17;102718.34;5091930;28;20491;-66
2022/05/08 06:29:33;;;;;;;6.38;1.77;;;;;;;21.42;40.89;102720.81;5092940;28;20020;-63
2022/05/08 06:31:59;;;;;;;6.53;2.20;;;;;;;21.47;40.97;102738.09;5092270;28;20368;-61
2022/05/08 06:34:26;;;;;;;9.55;2.22;;;;;;;21.44;39.96;102725.03;5092019;28;20040;-64
2022/05/08 06:36:51;;;;;;;7.60;2.15;;;;;;;21.50;40.58;102729.97;5092616;28;20024;-63
2022/05/08 06:39:17;;;;;;;7.60;2.10;;;;;;;21.55;40.43;102727.88;5092557;28;20024;-66
2022/05/08 06:41:42;;;;;;;6.30;1.93;;;;;;;21.61;40.48;102728.44;5091924;28;20051;-60
2022/05/08 06:44:16;;;;;;;5.03;2.10;;;;;;;21.67;40.31;102728.88;5092055;28;20403;-66
2022/05/08 06:46:42;;;;;;;5.68;2.03;;;;;;;21.71;40.36;102735.69;5091829;28;20723;-62
2022/05/08 06:49:07;;;;;;;4.60;1.60;;;;;;;21.76;39.92;102726.53;5092616;28;20024;-64
2022/05/08 06:51:34;;;;;;;5.38;1.70;;;;;;;21.78;40.01;102736.09;5092648;28;20024;-62
2022/05/08 06:54:00;;;;;;;5.53;2.03;;;;;;;21.80;39.88;102733.34;5091875;28;20107;-63
2022/05/08 06:56:26;;;;;;;5.68;1.75;;;;;;;21.81;39.86;102735.03;5092332;28;20066;-65
2022/05/08 07:01:38;;;;;;;;;;;;;;;21.85;39.85;102729.41;5092230;28;20073;-63
2022/05/08 07:04:07;;;;;;;5.93;1.80;;;;;;;21.85;40.05;102736.53;5092022;28;19917;-64
2022/05/08 07:06:37;;;;;;;7.07;2.08;;;;;;;21.88;39.79;102741.66;5095514;28;20379;-61
2022/05/08 07:09:03;;;;;;;5.93;1.98;;;;;;;21.87;39.49;102740.81;5094822;28;20037;-64
2022/05/08 07:11:30;;;;;;;7.78;2.20;;;;;;;21.87;39.80;102743.47;5096133;28;20074;-62
2022/05/08 07:14:01;;;;;;;7.22;2.10;;;;;;;21.82;39.36;102748.19;5095470;28;20020;-65
2022/05/08 07:16:27;;;;;;;6.57;1.88;;;;;;;21.78;39.89;102745.84;5095846;28;20357;-65
2022/05/08 07:18:53;;;;;;;6.97;1.83;;;;;;;21.78;40.07;102748.50;5096250;28;20103;-62
2022/05/08 07:21:33;;;;;;;7.03;1.85;;;;;;;21.79;40.08;102753.72;5096767;28;20502;-63
2022/05/08 07:23:58;;;;;;;8.98;2.17;;;;;;;21.82;39.78;102748.19;5097550;28;20142;-62
2022/05/08 07:26:23;;;;;;;8.57;2.35;;;;;;;21.85;39.95;102752.47;5095820;28;20056;-61
2022/05/08 07:28:49;;;;;;;6.40;1.83;;;;;;;21.87;39.81;102754.06;5094732;28;20043;-64
2022/05/08 07:31:14;;;;;;;14.45;2.30;;;;;;;21.90;40.08;102750.34;5095670;28;20027;-61
2022/05/08 07:33:39;;;;;;;6.53;2.00;;;;;;;21.91;39.60;102757.38;5095404;28;20447;-63
2022/05/08 07:36:14;;;;;;;5.82;1.80;;;;;;;21.92;40.10;102754.59;5094311;28;20514;-62
2022/05/08 07:38:45;;;;;;;5.80;1.95;;;;;;;21.91;40.30;102752.06;5095626;28;20589;-62
2022/05/08 07:41:11;;;;;;;5.47;2.00;;;;;;;21.92;39.92;102754.59;5095084;28;20111;-62
2022/05/08 07:43:37;;;;;;;7.35;2.00;;;;;;;21.96;40.11;102759.72;5094722;28;20028;-59
2022/05/08 07:46:03;;;;;;;6.47;2.05;;;;;;;21.98;40.29;102758.63;5095071;28;20021;-60
2022/05/08 07:48:28;;;;;;;4.57;1.65;;;;;;;21.98;40.18;102757.78;5095160;28;20038;-61
2022/05/08 07:50:54;;;;;;;8.50;2.05;;;;;;;21.98;40.16;102760.44;5094305;28;20016;-61
2022/05/08 07:53:19;;;;;;;7.75;2.42;;;;;;;21.99;40.30;102760.34;5095427;28;20024;-60
2022/05/08 07:55:51;;;;;;;9.35;1.90;;;;;;;22.03;40.31;102766.28;5094926;28;20035;-59
2022/05/08 07:58:21;;;;;;;7.20;1.70;;;;;;;22.07;40.02;102762.47;5094696;28;20043;-60
2022/05/08 08:00:46;;;;;;;5.72;1.83;;;;;;;22.10;40.16;102767.59;5094792;28;20081;-62
2022/05/08 08:03:12;;;;;;;7.95;2.10;;;;;;;22.12;39.98;102767.47;5094456;28;20024;-64
2022/05/08 08:05:38;;;;;;;8.30;2.05;;;;;;;22.14;39.96;102768.22;5094364;28;20479;-64
2022/05/08 08:08:04;;;;;;;6.78;2.05;;;;;;;22.14;40.02;102774.38;5094549;28;20024;-62
2022/05/08 08:10:29;;;;;;;6.28;1.88;;;;;;;22.15;40.01;102773.41;5094904;28;20026;-62
2022/05/08 08:12:56;;;;;;;8.88;2.22;;;;;;;22.13;39.80;102770.03;5093641;28;20051;-63
2022/05/08 08:15:22;;;;;;;7.95;2.05;;;;;;;22.13;39.87;102777.13;5094310;28;20071;-61
2022/05/08 08:17:47;;;;;;;8.43;2.55;;;;;;;22.14;39.94;102770.88;5093358;28;20529;-64
2022/05/08 08:20:12;;;;;;;4.90;1.55;;;;;;;22.14;40.13;102762.91;5094089;28;20107;-62
2022/05/08 08:22:40;;;;;;;5.70;1.77;;;;;;;22.15;39.82;102772.59;5094614;28;20077;-62
2022/05/08 08:25:09;;;;;;;5.53;1.85;;;;;;;22.18;39.99;102765.25;5093697;28;20278;-63
2022/05/08 08:27:34;;;;;;;4.97;1.80;;;;;;;22.20;39.65;102776.59;5094221;28;20058;-61
2022/05/08 08:30:01;;;;;;;7.53;1.92;;;;;;;22.20;39.05;102778.41;5093952;28;20041;-60
2022/05/08 08:32:26;;;;;;;8.32;1.90;;;;;;;22.20;39.81;102773.94;5093530;28;20476;-62
2022/05/08 08:34:53;;;;;;;5.60;1.80;;;;;;;22.20;39.87;102773.09;5094039;28;20044;-60
2022/05/08 08:37:21;;;;;;;5.40;2.00;;;;;;;22.21;39.69;102780.13;5094148;28;20479;-60
2022/05/08 08:39:46;;;;;;;6.10;1.85;;;;;;;22.21;39.56;102775.66;5093499;28;20024;-60
2022/05/08 08:42:31;;;;;;;5.80;1.58;;;;;;;22.22;39.54;102785.34;5093641;28;20073;-59
2022/05/08 08:47:49;;;;;;;5.82;1.85;;;;;;;22.21;39.33;102775.66;5093392;28;20050;-59
2022/05/08 08:50:16;;;;;;;10.07;1.88;;;;;;;22.19;39.64;102771.41;5094056;28;20539;-60
2022/05/08 08:52:43;;;;;;;5.53;1.75;;;;;;;22.19;39.55;102768.75;5094097;28;20027;-60
2022/05/08 08:55:09;;;;;;;6.72;1.73;;;;;;;22.18;39.46;102770.56;5092984;28;20028;-60
2022/05/08 08:57:35;;;;;;;5.35;1.65;;;;;;;22.21;39.53;102773.00;5093893;28;20028;-60
2022/05/08 09:00:00;;;;;;;4.70;1.58;;;;;;;22.22;39.42;102777.38;5093321;28;20044;-62
2022/05/08 09:02:26;;;;;;;7.00;1.67;;;;;;;22.22;39.31;102774.72;5093756;28;20490;-59
2022/05/08 09:04:51;;;;;;;8.30;2.20;;;;;;;22.20;38.78;102771.28;5093617;28;20024;-58
2022/05/08 09:07:43;;;;;;;5.97;1.90;;;;;;;22.18;38.66;102786.50;5092826;28;20076;-60
2022/05/08 09:10:12;;;;;;;6.65;2.00;;;;;;;22.15;38.65;102781.38;5093539;28;20261;-59
2022/05/08 09:12:42;;;;;;;10.48;1.83;;;;;;;22.13;38.64;102775.34;5093839;28;20064;-60
2022/05/08 09:15:18;;;;;;;9.13;1.95;;;;;;;22.16;39.42;102776.91;5092544;28;20127;-63
2022/05/08 09:17:44;;;;;;;5.35;1.60;;;;;;;22.18;39.32;102781.19;5093737;28;20052;-61
2022/05/08 09:20:27;;;;;;;6.68;1.67;;;;;;;22.21;39.28;102782.78;5093070;28;20028;-62
2022/05/08 09:23:23;;;;;;;7.47;2.55;;;;;;;22.24;39.25;102775.44;5092468;28;20032;-62
2022/05/08 09:25:52;;;;;;;6.95;2.10;;;;;;;22.27;39.04;102775.25;5093195;28;20028;-63
2022/05/08 09:28:28;;;;;;;5.53;1.45;;;;;;;22.25;38.89;102777.13;5092268;28;20029;-63
2022/05/08 09:30:59;;;;;;;8.75;1.80;;;;;;;22.27;39.22;102771.72;5093241;28;20016;-61
2022/05/08 09:33:29;;;;;;;7.18;2.00;;;;;;;22.28;39.04;102758.34;5093540;28;20054;-60
2022/05/08 09:35:55;;;;;;;7.32;2.22;;;;;;;22.28;39.20;102773.44;5092177;28;20538;-63
2022/05/08 09:38:20;;;;;;;6.97;1.60;;;;;;;22.28;38.94;102765.47;5093141;28;20031;-60
2022/05/08 09:41:03;;;;;;;6.50;2.00;;;;;;;22.32;38.49;102760.81;5092928;28;20017;-61
2022/05/08 09:43:29;;;;;;;5.25;1.70;;;;;;;22.33;38.77;102752.75;5092412;28;20493;-60
2022/05/08 09:46:02;;;;;;;7.97;1.80;;;;;;;22.32;39.21;102760.81;5093114;28;20107;-60
2022/05/08 09:48:29;;;;;;;6.32;1.80;;;;;;;22.34;38.98;102759.75;5093016;28;20032;-60
2022/05/08 09:51:08;;;;;;;5.35;1.58;;;;;;;22.35;38.99;102764.13;5092033;28;20050;-60
2022/05/08 09:53:35;;;;;;;9.23;1.70;;;;;;;22.32;39.13;102761.69;5093226;28;20020;-61
2022/05/08 09:56:06;;;;;;;7.45;2.38;;;;;;;22.31;39.58;102762.63;5092843;28;20024;-60
2022/05/08 09:58:32;;;;;;;7.47;2.08;;;;;;;22.28;39.44;102758.34;5092456;28;20053;-60
2022/05/08 10:00:57;;;;;;;5.80;1.58;;;;;;;22.29;39.08;102756.53;5092616;28;20059;-60
2022/05/08 10:03:24;;;;;;;6.18;1.70;;;;;;;22.31;38.47;102759.97;5092360;28;20448;-62
2022/05/08 10:05:50;;;;;;;4.30;1.42;;;;;;;22.31;39.09;102759.97;5092531;28;20471;-62
2022/05/08 10:08:19;;;;;;;7.90;1.70;;;;;;;22.32;38.79;102753.72;5092721;28;20036;-62
2022/05/08 10:13:56;;;;;;;5.72;2.15;;;;;;;22.35;38.67;102744.66;5093171;28;20384;-61
2022/05/08 10:16:44;;;;;;;6.53;2.03;;;;;;;22.35;38.82;102742.00;5092811;28;20135;-60
2022/05/08 10:19:22;;;;;;;6.88;1.90;;;;;;;22.37;38.78;102737.47;5091999;28;20024;-63
2022/05/08 10:22:13;;;;;;;4.90;1.35;;;;;;;22.36;38.81;102747.22;5092811;28;20024;-61
2022/05/08 10:24:51;;;;;;;7.95;2.05;;;;;;;22.37;39.13;102734.81;5091993;28;20418;-62
2022/05/08 10:27:20;;;;;;;7.80;1.90;;;;;;;22.37;38.57;102734.81;5092967;28;20030;-62
2022/05/08 10:29:48;;;;;;;5.20;1.65;;;;;;;22.38;38.61;102740.00;5092734;28;20042;-62
2022/05/08 10:32:33;;;;;;;5.20;1.52;;;;;;;22.42;38.48;102736.16;5091912;28;20040;-60
2022/05/08 10:35:12;;;;;;;5.05;1.70;;;;;;;22.46;38.46;102742.97;5092224;28;20028;-64
2022/05/08 10:37:40;;;;;;;6.57;1.95;;;;;;;22.50;38.35;102738.28;5092797;28;20440;-65
2022/05/08 10:40:23;;;;;;;6.97;1.85;;;;;;;22.52;38.41;102738.19;5092742;28;20103;-65
2022/05/08 10:42:49;;;;;;;6.53;1.95;;;;;;;22.53;38.29;102731.91;5096138;28;20052;-65
2022/05/08 10:45:29;;;;;;;4.93;1.80;;;;;;;22.55;38.53;102722.84;5096435;28;20102;-62
2022/05/08 10:48:18;;;;;;;5.28;1.70;;;;;;;22.55;38.50;102730.84;5095738;28;20032;-62
2022/05/08 10:50:59;;;;;;;6.43;1.60;;;;;;;22.55;38.58;102720.19;5095863;28;20100;-63
2022/05/08 10:53:36;;;;;;;8.85;1.88;;;;;;;22.57;38.59;102733.38;5095496;28;20024;-64
2022/05/08 10:56:06;;;;;;;7.68;2.20;;;;;;;22.57;38.31;102722.75;5095785;28;20031;-65
2022/05/08 10:58:33;;;;;;;7.35;1.95;;;;;;;22.57;38.78;102722.75;5096356;28;20024;-62
2022/05/08 11:01:02;;;;;;;10.07;2.30;;;;;;;22.57;38.89;102717.44;5095670;28;20026;-63
2022/05/08 11:03:29;;;;;;;8.68;2.53;;;;;;;22.54;38.64;102723.84;5096218;28;20028;-65
2022/05/08 11:05:54;;;;;;;11.80;2.78;;;;;;;22.54;38.98;102721.19;5096087;28;20028;-65
2022/05/08 11:08:29;;;;;;;10.60;2.75;;;;;;;22.56;39.21;102724.56;5096865;28;20024;-62
2022/05/08 11:11:13;;;;;;;;;;;;;;;22.55;39.01;102720.19;5096873;28;20066;-62
2022/05/08 11:13:49;;;;;;;7.38;2.13;;;;;;;22.57;39.16;102723.63;5095922;28;19912;-61
2022/05/08 11:16:36;;;;;;;9.55;2.13;;;;;;;22.58;38.74;102721.81;5097414;28;20063;-63
2022/05/08 11:19:03;;;;;;;8.63;2.42;;;;;;;22.57;37.61;102723.63;5097674;28;20063;-61
2022/05/08 11:21:29;;;;;;;7.20;2.08;;;;;;;22.59;37.89;102724.34;5095501;28;20024;-65
2022/05/08 11:23:55;;;;;;;12.35;2.20;;;;;;;22.59;38.84;102715.53;5096596;28;20099;-64
2022/05/08 11:26:28;;;;;;;9.63;2.28;;;;;;;22.59;39.15;102712.88;5096678;28;20062;-64
2022/05/08 11:28:55;;;;;;;9.23;1.95;;;;;;;22.59;38.95;102702.25;5095254;28;20039;-64
2022/05/08 11:31:21;;;;;;;8.63;2.78;;;;;;;22.59;39.29;102705.75;5096089;28;20048;-65
2022/05/08 11:36:32;;;;;;;6.53;2.17;;;;;;;22.57;39.04;102699.72;5094942;28;20051;-63
2022/05/08 11:39:02;;;;;;;5.82;1.77;;;;;;;22.60;39.06;102706.59;5095022;28;20097;-63
2022/05/08 11:41:44;;;;;;;9.43;2.28;;;;;;;22.64;38.42;102702.78;5095134;28;20032;-62
2022/05/08 11:44:12;;;;;;;7.28;1.90;;;;;;;22.67;38.86;102701.69;5094724;28;20118;-62
2022/05/08 11:46:39;;;;;;;7.35;2.72;;;;;;;22.68;38.91;102711.38;5095315;28;20024;-62
2022/05/08 11:49:20;;;;;;;6.95;1.80;;;;;;;22.66;39.11;102700.84;5094199;28;20047;-62